sensor_id;sensor_type;location;lat;lon;timestamp;temperature;humidity
11140;DHT22;5624;49.388;11.350;2023-03-04T00:01:47;-1.90;89.30
11140;DHT22;5624;49.388;11.350;2023-03-04T00:04:15;-1.90;88.90
11140;DHT22;5624;49.388;11.350;2023-03-04T00:06:40;-2.00;89.10
11140;DHT22;5624;49.388;11.350;2023-03-04T00:09:06;-1.90;89.30
11140;DHT22;5624;49.388;11.350;2023-03-04T00:11:31;-1.90;89.20
11140;DHT22;5624;49.388;11.350;2023-03-04T00:13:57;-1.90;89.20
11140;DHT22;5624;49.388;11.350;2023-03-04T00:16:23;-1.80;89.20
11140;DHT22;5624;49.388;11.350;2023-03-04T00:18:53;-1.90;89.30
11140;DHT22;5624;49.388;11.350;2023-03-04T00:21:19;-1.80;89.50
11140;DHT22;5624;49.388;11.350;2023-03-04T00:23:45;-1.80;89.10
11140;DHT22;5624;49.388;11.350;2023-03-04T00:26:11;-1.80;89.30
11140;DHT22;5624;49.388;11.350;2023-03-04T00:28:37;-1.90;89.00
11140;DHT22;5624;49.388;11.350;2023-03-04T00:31:04;-2.00;89.40
11140;DHT22;5624;49.388;11.350;2023-03-04T00:33:30;-1.90;89.80
11140;DHT22;5624;49.388;11.350;2023-03-04T00:35:55;-2.10;90.00
11140;DHT22;5624;49.388;11.350;2023-03-04T00:38:21;-2.10;90.30
11140;DHT22;5624;49.388;11.350;2023-03-04T00:40:47;-2.10;90.40
11140;DHT22;5624;49.388;11.350;2023-03-04T00:43:12;-2.10;90.50
11140;DHT22;5624;49.388;11.350;2023-03-04T00:45:38;-2.10;90.50
11140;DHT22;5624;49.388;11.350;2023-03-04T00:48:03;-2.20;90.50
11140;DHT22;5624;49.388;11.350;2023-03-04T00:50:29;-2.20;90.90
11140;DHT22;5624;49.388;11.350;2023-03-04T00:52:55;-2.20;90.70
11140;DHT22;5624;49.388;11.350;2023-03-04T00:55:20;-2.30;91.00
11140;DHT22;5624;49.388;11.350;2023-03-04T00:57:46;-2.30;90.90
11140;DHT22;5624;49.388;11.350;2023-03-04T01:00:12;-2.30;91.30
11140;DHT22;5624;49.388;11.350;2023-03-04T01:02:38;-2.30;90.90
11140;DHT22;5624;49.388;11.350;2023-03-04T01:05:04;-2.30;91.20
11140;DHT22;5624;49.388;11.350;2023-03-04T01:07:30;-2.40;90.80
11140;DHT22;5624;49.388;11.350;2023-03-04T01:09:55;-2.40;90.40
11140;DHT22;5624;49.388;11.350;2023-03-04T01:12:21;-2.40;91.10
11140;DHT22;5624;49.388;11.350;2023-03-04T01:14:46;-2.50;91.30
11140;DHT22;5624;49.388;11.350;2023-03-04T01:17:12;-2.50;91.70
11140;DHT22;5624;49.388;11.350;2023-03-04T01:19:37;-2.60;91.60
11140;DHT22;5624;49.388;11.350;2023-03-04T01:22:03;-2.60;92.20
11140;DHT22;5624;49.388;11.350;2023-03-04T01:24:29;-2.60;92.30
11140;DHT22;5624;49.388;11.350;2023-03-04T01:26:55;-2.60;92.30
11140;DHT22;5624;49.388;11.350;2023-03-04T01:29:20;-2.50;92.40
11140;DHT22;5624;49.388;11.350;2023-03-04T01:31:46;-2.60;92.50
11140;DHT22;5624;49.388;11.350;2023-03-04T01:34:12;-2.60;92.20
11140;DHT22;5624;49.388;11.350;2023-03-04T01:36:37;-2.60;92.80
11140;DHT22;5624;49.388;11.350;2023-03-04T01:39:03;-2.70;92.90
11140;DHT22;5624;49.388;11.350;2023-03-04T01:41:29;-2.70;93.10
11140;DHT22;5624;49.388;11.350;2023-03-04T01:43:55;-2.70;93.10
11140;DHT22;5624;49.388;11.350;2023-03-04T01:46:23;-2.70;93.60
11140;DHT22;5624;49.388;11.350;2023-03-04T01:48:49;-2.70;93.80
11140;DHT22;5624;49.388;11.350;2023-03-04T01:51:17;-2.80;93.70
11140;DHT22;5624;49.388;11.350;2023-03-04T01:53:44;-2.70;93.90
11140;DHT22;5624;49.388;11.350;2023-03-04T01:56:14;-2.90;94.10
11140;DHT22;5624;49.388;11.350;2023-03-04T01:58:40;-2.80;94.50
11140;DHT22;5624;49.388;11.350;2023-03-04T02:01:05;-2.90;94.40
11140;DHT22;5624;49.388;11.350;2023-03-04T02:03:31;-2.80;94.90
11140;DHT22;5624;49.388;11.350;2023-03-04T02:05:56;-2.90;94.70
11140;DHT22;5624;49.388;11.350;2023-03-04T02:08:23;-2.90;95.40
11140;DHT22;5624;49.388;11.350;2023-03-04T02:10:50;-3.00;94.70
11140;DHT22;5624;49.388;11.350;2023-03-04T02:13:16;-3.00;95.10
11140;DHT22;5624;49.388;11.350;2023-03-04T02:15:44;-3.10;95.20
11140;DHT22;5624;49.388;11.350;2023-03-04T02:18:16;-3.10;95.30
11140;DHT22;5624;49.388;11.350;2023-03-04T02:26:23;-3.30;95.50
11140;DHT22;5624;49.388;11.350;2023-03-04T02:28:51;-3.30;95.80
11140;DHT22;5624;49.388;11.350;2023-03-04T02:31:24;-3.30;95.90
11140;DHT22;5624;49.388;11.350;2023-03-04T02:33:52;-3.30;96.30
11140;DHT22;5624;49.388;11.350;2023-03-04T02:36:18;-3.30;95.80
11140;DHT22;5624;49.388;11.350;2023-03-04T02:38:44;-3.30;96.30
11140;DHT22;5624;49.388;11.350;2023-03-04T02:41:14;-3.30;96.30
11140;DHT22;5624;49.388;11.350;2023-03-04T02:43:50;-3.40;96.60
11140;DHT22;5624;49.388;11.350;2023-03-04T02:46:16;-3.40;96.70
11140;DHT22;5624;49.388;11.350;2023-03-04T02:48:41;-3.40;97.00
11140;DHT22;5624;49.388;11.350;2023-03-04T02:51:07;-3.40;96.30
11140;DHT22;5624;49.388;11.350;2023-03-04T02:53:32;-3.40;97.30
11140;DHT22;5624;49.388;11.350;2023-03-04T02:55:58;-3.40;96.60
11140;DHT22;5624;49.388;11.350;2023-03-04T02:58:24;-3.50;96.80
11140;DHT22;5624;49.388;11.350;2023-03-04T03:00:49;-3.50;97.10
11140;DHT22;5624;49.388;11.350;2023-03-04T03:03:15;-3.50;97.10
11140;DHT22;5624;49.388;11.350;2023-03-04T03:05:40;-3.50;97.30
11140;DHT22;5624;49.388;11.350;2023-03-04T03:08:06;-3.40;97.10
11140;DHT22;5624;49.388;11.350;2023-03-04T03:10:32;-3.50;96.60
11140;DHT22;5624;49.388;11.350;2023-03-04T03:12:58;-3.50;97.00
11140;DHT22;5624;49.388;11.350;2023-03-04T03:15:23;-3.50;96.80
11140;DHT22;5624;49.388;11.350;2023-03-04T03:17:49;-3.60;97.00
11140;DHT22;5624;49.388;11.350;2023-03-04T03:20:15;-3.60;97.30
11140;DHT22;5624;49.388;11.350;2023-03-04T03:22:41;-3.60;97.20
11140;DHT22;5624;49.388;11.350;2023-03-04T03:25:07;-3.50;97.40
11140;DHT22;5624;49.388;11.350;2023-03-04T03:27:32;-3.60;97.40
11140;DHT22;5624;49.388;11.350;2023-03-04T03:29:58;-3.60;97.40
11140;DHT22;5624;49.388;11.350;2023-03-04T03:32:24;-3.50;97.40
11140;DHT22;5624;49.388;11.350;2023-03-04T03:34:49;-3.50;97.10
11140;DHT22;5624;49.388;11.350;2023-03-04T03:37:15;-3.60;96.90
11140;DHT22;5624;49.388;11.350;2023-03-04T03:39:40;-3.60;97.40
11140;DHT22;5624;49.388;11.350;2023-03-04T03:42:06;-3.60;97.50
11140;DHT22;5624;49.388;11.350;2023-03-04T03:44:32;-3.60;97.40
11140;DHT22;5624;49.388;11.350;2023-03-04T03:46:57;-3.50;97.50
11140;DHT22;5624;49.388;11.350;2023-03-04T03:49:23;-3.50;97.30
11140;DHT22;5624;49.388;11.350;2023-03-04T03:51:48;-3.50;97.00
11140;DHT22;5624;49.388;11.350;2023-03-04T03:54:14;-3.50;97.10
11140;DHT22;5624;49.388;11.350;2023-03-04T03:56:39;-3.40;97.10
11140;DHT22;5624;49.388;11.350;2023-03-04T03:59:05;-3.50;97.40
11140;DHT22;5624;49.388;11.350;2023-03-04T04:01:31;-3.40;97.20
11140;DHT22;5624;49.388;11.350;2023-03-04T04:03:58;-3.40;97.30
11140;DHT22;5624;49.388;11.350;2023-03-04T04:06:23;-3.40;97.30
11140;DHT22;5624;49.388;11.350;2023-03-04T04:08:49;-3.30;96.80
11140;DHT22;5624;49.388;11.350;2023-03-04T04:11:14;-3.30;96.50
11140;DHT22;5624;49.388;11.350;2023-03-04T04:13:40;-3.30;96.30
11140;DHT22;5624;49.388;11.350;2023-03-04T04:16:06;-3.30;96.00
11140;DHT22;5624;49.388;11.350;2023-03-04T04:18:32;-3.30;96.40
11140;DHT22;5624;49.388;11.350;2023-03-04T04:20:57;-3.40;96.40
11140;DHT22;5624;49.388;11.350;2023-03-04T04:23:23;-3.60;96.70
11140;DHT22;5624;49.388;11.350;2023-03-04T04:25:48;-3.60;97.20
11140;DHT22;5624;49.388;11.350;2023-03-04T04:28:14;-3.60;98.00
11140;DHT22;5624;49.388;11.350;2023-03-04T04:30:40;-3.60;97.10
11140;DHT22;5624;49.388;11.350;2023-03-04T04:33:05;-3.70;97.00
11140;DHT22;5624;49.388;11.350;2023-03-04T04:35:32;-3.80;98.50
11140;DHT22;5624;49.388;11.350;2023-03-04T04:37:59;-4.00;98.90
11140;DHT22;5624;49.388;11.350;2023-03-04T04:40:24;-4.10;99.60
11140;DHT22;5624;49.388;11.350;2023-03-04T04:42:50;-4.10;99.80
11140;DHT22;5624;49.388;11.350;2023-03-04T04:45:16;-4.00;99.90
11140;DHT22;5624;49.388;11.350;2023-03-04T04:47:41;-4.00;99.90
11140;DHT22;5624;49.388;11.350;2023-03-04T04:50:07;-4.00;99.90
11140;DHT22;5624;49.388;11.350;2023-03-04T04:52:33;-3.90;99.90
11140;DHT22;5624;49.388;11.350;2023-03-04T04:54:58;-3.90;99.90
11140;DHT22;5624;49.388;11.350;2023-03-04T04:57:24;-3.80;99.90
11140;DHT22;5624;49.388;11.350;2023-03-04T04:59:50;-3.70;99.90
11140;DHT22;5624;49.388;11.350;2023-03-04T05:02:15;-3.70;99.90
11140;DHT22;5624;49.388;11.350;2023-03-04T05:04:41;-3.60;99.90
11140;DHT22;5624;49.388;11.350;2023-03-04T05:07:06;-3.60;99.90
11140;DHT22;5624;49.388;11.350;2023-03-04T05:09:32;-3.60;99.90
11140;DHT22;5624;49.388;11.350;2023-03-04T05:11:58;-3.60;99.90
11140;DHT22;5624;49.388;11.350;2023-03-04T05:14:23;-3.50;99.90
11140;DHT22;5624;49.388;11.350;2023-03-04T05:16:49;-3.50;99.90
11140;DHT22;5624;49.388;11.350;2023-03-04T05:19:17;-3.50;99.90
11140;DHT22;5624;49.388;11.350;2023-03-04T05:21:43;-3.40;99.90
11140;DHT22;5624;49.388;11.350;2023-03-04T05:24:09;-3.40;99.90
11140;DHT22;5624;49.388;11.350;2023-03-04T05:26:34;-3.40;99.90
11140;DHT22;5624;49.388;11.350;2023-03-04T05:29:00;-3.30;99.90
11140;DHT22;5624;49.388;11.350;2023-03-04T05:31:25;-3.30;99.90
11140;DHT22;5624;49.388;11.350;2023-03-04T05:33:51;-3.30;99.90
11140;DHT22;5624;49.388;11.350;2023-03-04T05:36:17;-3.30;99.90
11140;DHT22;5624;49.388;11.350;2023-03-04T05:38:42;-3.30;99.90
11140;DHT22;5624;49.388;11.350;2023-03-04T05:41:08;-3.20;99.90
11140;DHT22;5624;49.388;11.350;2023-03-04T05:43:34;-3.10;99.90
11140;DHT22;5624;49.388;11.350;2023-03-04T05:46:02;-3.00;99.70
11140;DHT22;5624;49.388;11.350;2023-03-04T05:48:27;-3.00;99.30
11140;DHT22;5624;49.388;11.350;2023-03-04T05:50:58;-2.90;99.30
11140;DHT22;5624;49.388;11.350;2023-03-04T05:53:24;-2.90;99.10
11140;DHT22;5624;49.388;11.350;2023-03-04T05:55:50;-2.90;99.20
11140;DHT22;5624;49.388;11.350;2023-03-04T05:58:17;-3.00;99.40
11140;DHT22;5624;49.388;11.350;2023-03-04T06:00:43;-2.90;99.60
11140;DHT22;5624;49.388;11.350;2023-03-04T06:03:20;-2.80;99.50
11140;DHT22;5624;49.388;11.350;2023-03-04T06:05:46;-2.80;98.90
11140;DHT22;5624;49.388;11.350;2023-03-04T06:08:12;-2.80;99.10
11140;DHT22;5624;49.388;11.350;2023-03-04T06:10:39;-2.70;99.00
11140;DHT22;5624;49.388;11.350;2023-03-04T06:13:05;-2.80;98.80
11140;DHT22;5624;49.388;11.350;2023-03-04T06:15:32;-2.70;99.30
11140;DHT22;5624;49.388;11.350;2023-03-04T06:17:57;-2.70;99.10
11140;DHT22;5624;49.388;11.350;2023-03-04T06:20:23;-2.70;99.00
11140;DHT22;5624;49.388;11.350;2023-03-04T06:22:49;-2.70;99.50
11140;DHT22;5624;49.388;11.350;2023-03-04T06:25:15;-2.60;98.80
11140;DHT22;5624;49.388;11.350;2023-03-04T06:27:41;-2.50;98.90
11140;DHT22;5624;49.388;11.350;2023-03-04T06:30:07;-2.60;99.10
11140;DHT22;5624;49.388;11.350;2023-03-04T06:32:32;-2.50;98.90
11140;DHT22;5624;49.388;11.350;2023-03-04T06:34:58;-2.50;98.40
11140;DHT22;5624;49.388;11.350;2023-03-04T06:37:24;-2.40;98.20
11140;DHT22;5624;49.388;11.350;2023-03-04T06:39:49;-2.40;98.20
11140;DHT22;5624;49.388;11.350;2023-03-04T06:42:15;-2.40;97.70
11140;DHT22;5624;49.388;11.350;2023-03-04T06:44:40;-2.40;98.00
11140;DHT22;5624;49.388;11.350;2023-03-04T06:47:06;-2.40;98.40
11140;DHT22;5624;49.388;11.350;2023-03-04T06:49:32;-2.40;98.10
11140;DHT22;5624;49.388;11.350;2023-03-04T06:51:57;-2.40;98.20
11140;DHT22;5624;49.388;11.350;2023-03-04T06:54:24;-2.40;98.30
11140;DHT22;5624;49.388;11.350;2023-03-04T06:56:50;-2.40;99.10
11140;DHT22;5624;49.388;11.350;2023-03-04T06:59:15;-2.40;98.70
11140;DHT22;5624;49.388;11.350;2023-03-04T07:01:41;-2.30;98.70
11140;DHT22;5624;49.388;11.350;2023-03-04T07:04:07;-2.30;98.80
11140;DHT22;5624;49.388;11.350;2023-03-04T07:06:32;-2.20;98.60
11140;DHT22;5624;49.388;11.350;2023-03-04T07:08:58;-2.20;98.30
11140;DHT22;5624;49.388;11.350;2023-03-04T07:11:24;-2.20;98.50
11140;DHT22;5624;49.388;11.350;2023-03-04T07:13:50;-2.30;98.90
11140;DHT22;5624;49.388;11.350;2023-03-04T07:16:19;-2.30;98.90
11140;DHT22;5624;49.388;11.350;2023-03-04T07:18:45;-2.30;99.30
11140;DHT22;5624;49.388;11.350;2023-03-04T07:21:12;-2.30;99.10
11140;DHT22;5624;49.388;11.350;2023-03-04T07:23:38;-2.20;99.40
11140;DHT22;5624;49.388;11.350;2023-03-04T07:26:04;-2.10;98.40
11140;DHT22;5624;49.388;11.350;2023-03-04T07:28:30;-2.10;98.40
11140;DHT22;5624;49.388;11.350;2023-03-04T07:30:56;-2.00;98.20
11140;DHT22;5624;49.388;11.350;2023-03-04T07:33:21;-2.00;97.80
11140;DHT22;5624;49.388;11.350;2023-03-04T07:35:47;-2.00;97.90
11140;DHT22;5624;49.388;11.350;2023-03-04T07:38:12;-2.00;97.60
11140;DHT22;5624;49.388;11.350;2023-03-04T07:40:38;-2.00;97.70
11140;DHT22;5624;49.388;11.350;2023-03-04T07:43:04;-1.90;97.70
11140;DHT22;5624;49.388;11.350;2023-03-04T07:45:30;-1.90;97.80
11140;DHT22;5624;49.388;11.350;2023-03-04T07:47:57;-1.90;97.50
11140;DHT22;5624;49.388;11.350;2023-03-04T07:50:23;-1.90;97.40
11140;DHT22;5624;49.388;11.350;2023-03-04T07:52:50;-1.90;97.20
11140;DHT22;5624;49.388;11.350;2023-03-04T07:55:16;-1.90;97.90
11140;DHT22;5624;49.388;11.350;2023-03-04T07:57:43;-1.80;97.20
11140;DHT22;5624;49.388;11.350;2023-03-04T08:00:10;-1.70;96.40
11140;DHT22;5624;49.388;11.350;2023-03-04T08:02:36;-1.70;96.00
11140;DHT22;5624;49.388;11.350;2023-03-04T08:05:02;-1.60;96.20
11140;DHT22;5624;49.388;11.350;2023-03-04T08:07:28;-1.60;96.00
11140;DHT22;5624;49.388;11.350;2023-03-04T08:09:53;-1.50;95.40
11140;DHT22;5624;49.388;11.350;2023-03-04T08:12:19;-1.50;95.20
11140;DHT22;5624;49.388;11.350;2023-03-04T08:14:45;-1.40;94.60
11140;DHT22;5624;49.388;11.350;2023-03-04T08:17:10;-1.40;94.80
11140;DHT22;5624;49.388;11.350;2023-03-04T08:19:39;-1.40;94.10
11140;DHT22;5624;49.388;11.350;2023-03-04T08:22:05;-1.30;94.40
11140;DHT22;5624;49.388;11.350;2023-03-04T08:24:30;-1.30;94.20
11140;DHT22;5624;49.388;11.350;2023-03-04T08:26:56;-1.30;93.60
11140;DHT22;5624;49.388;11.350;2023-03-04T08:29:23;-1.20;93.50
11140;DHT22;5624;49.388;11.350;2023-03-04T08:31:50;-1.20;93.80
11140;DHT22;5624;49.388;11.350;2023-03-04T08:34:17;-1.20;92.90
11140;DHT22;5624;49.388;11.350;2023-03-04T08:36:43;-1.20;93.20
11140;DHT22;5624;49.388;11.350;2023-03-04T08:39:12;-1.00;93.80
11140;DHT22;5624;49.388;11.350;2023-03-04T08:41:38;-1.00;92.40
11140;DHT22;5624;49.388;11.350;2023-03-04T08:44:04;-1.00;92.90
11140;DHT22;5624;49.388;11.350;2023-03-04T08:46:32;-0.90;92.50
11140;DHT22;5624;49.388;11.350;2023-03-04T08:48:58;-0.70;92.50
11140;DHT22;5624;49.388;11.350;2023-03-04T08:51:23;-0.60;91.10
11140;DHT22;5624;49.388;11.350;2023-03-04T08:53:49;-0.60;90.30
11140;DHT22;5624;49.388;11.350;2023-03-04T08:56:15;-0.60;90.10
11140;DHT22;5624;49.388;11.350;2023-03-04T08:58:41;-0.60;89.60
11140;DHT22;5624;49.388;11.350;2023-03-04T09:01:09;-0.60;89.60
11140;DHT22;5624;49.388;11.350;2023-03-04T09:03:34;-0.40;90.00
11140;DHT22;5624;49.388;11.350;2023-03-04T09:06:01;-0.30;88.30
11140;DHT22;5624;49.388;11.350;2023-03-04T09:08:28;-0.30;88.80
11140;DHT22;5624;49.388;11.350;2023-03-04T09:10:54;-0.30;88.10
11140;DHT22;5624;49.388;11.350;2023-03-04T09:13:21;-0.30;88.10
11140;DHT22;5624;49.388;11.350;2023-03-04T09:15:48;-0.30;87.70
11140;DHT22;5624;49.388;11.350;2023-03-04T09:18:15;-0.40;88.50
11140;DHT22;5624;49.388;11.350;2023-03-04T09:20:41;-0.30;88.00
11140;DHT22;5624;49.388;11.350;2023-03-04T09:23:07;-0.30;88.40
11140;DHT22;5624;49.388;11.350;2023-03-04T09:25:34;-0.20;87.90
11140;DHT22;5624;49.388;11.350;2023-03-04T09:28:00;-0.20;88.00
11140;DHT22;5624;49.388;11.350;2023-03-04T09:30:26;-0.10;87.00
11140;DHT22;5624;49.388;11.350;2023-03-04T09:32:51;0.00;87.00
11140;DHT22;5624;49.388;11.350;2023-03-04T09:35:17;0.00;86.90
11140;DHT22;5624;49.388;11.350;2023-03-04T09:37:43;0.00;87.30
11140;DHT22;5624;49.388;11.350;2023-03-04T09:40:16;0.00;86.40
11140;DHT22;5624;49.388;11.350;2023-03-04T09:42:47;0.10;86.70
11140;DHT22;5624;49.388;11.350;2023-03-04T09:45:20;0.20;85.60
11140;DHT22;5624;49.388;11.350;2023-03-04T09:47:48;0.10;86.10
11140;DHT22;5624;49.388;11.350;2023-03-04T09:50:16;0.20;85.10
11140;DHT22;5624;49.388;11.350;2023-03-04T09:55:49;0.20;85.70
11140;DHT22;5624;49.388;11.350;2023-03-04T09:58:46;0.30;85.50
11140;DHT22;5624;49.388;11.350;2023-03-04T10:01:33;0.30;84.40
11140;DHT22;5624;49.388;11.350;2023-03-04T10:06:50;0.50;84.00
11140;DHT22;5624;49.388;11.350;2023-03-04T10:12:12;0.70;83.50
11140;DHT22;5624;49.388;11.350;2023-03-04T10:17:37;0.60;81.60
11140;DHT22;5624;49.388;11.350;2023-03-04T10:22:46;0.70;80.80
11140;DHT22;5624;49.388;11.350;2023-03-04T10:25:19;0.60;80.20
11140;DHT22;5624;49.388;11.350;2023-03-04T10:28:10;0.60;81.20
11140;DHT22;5624;49.388;11.350;2023-03-04T10:30:48;0.60;80.60
11140;DHT22;5624;49.388;11.350;2023-03-04T10:33:17;0.70;80.60
11140;DHT22;5624;49.388;11.350;2023-03-04T10:35:47;0.80;80.80
11140;DHT22;5624;49.388;11.350;2023-03-04T10:38:15;0.80;79.70
11140;DHT22;5624;49.388;11.350;2023-03-04T10:40:43;0.80;79.30
11140;DHT22;5624;49.388;11.350;2023-03-04T10:43:27;0.90;80.10
11140;DHT22;5624;49.388;11.350;2023-03-04T10:46:01;1.10;78.10
11140;DHT22;5624;49.388;11.350;2023-03-04T10:48:29;1.20;78.10
11140;DHT22;5624;49.388;11.350;2023-03-04T10:51:20;1.10;78.30
11140;DHT22;5624;49.388;11.350;2023-03-04T10:53:49;1.30;78.50
11140;DHT22;5624;49.388;11.350;2023-03-04T11:02:18;1.30;77.20
11140;DHT22;5624;49.388;11.350;2023-03-04T11:05:31;1.30;77.10
11140;DHT22;5624;49.388;11.350;2023-03-04T11:07:43;1.40;76.40
11140;DHT22;5624;49.388;11.350;2023-03-04T11:13:11;1.40;76.00
11140;DHT22;5624;49.388;11.350;2023-03-04T11:15:58;1.50;75.10
11140;DHT22;5624;49.388;11.350;2023-03-04T11:18:51;1.60;75.70
11140;DHT22;5624;49.388;11.350;2023-03-04T11:21:20;1.70;74.50
11140;DHT22;5624;49.388;11.350;2023-03-04T11:23:49;1.60;73.50
11140;DHT22;5624;49.388;11.350;2023-03-04T11:26:42;1.60;73.50
11140;DHT22;5624;49.388;11.350;2023-03-04T11:32:30;1.60;73.90
11140;DHT22;5624;49.388;11.350;2023-03-04T11:37:39;1.40;73.70
11140;DHT22;5624;49.388;11.350;2023-03-04T11:40:23;1.30;73.60
11140;DHT22;5624;49.388;11.350;2023-03-04T11:43:06;1.20;74.50
11140;DHT22;5624;49.388;11.350;2023-03-04T11:56:59;1.70;73.10
11140;DHT22;5624;49.388;11.350;2023-03-04T12:02:17;1.90;72.70
11140;DHT22;5624;49.388;11.350;2023-03-04T12:07:52;1.80;71.60
11140;DHT22;5624;49.388;11.350;2023-03-04T12:16:03;1.60;72.30
11140;DHT22;5624;49.388;11.350;2023-03-04T12:18:39;1.70;72.10
11140;DHT22;5624;49.388;11.350;2023-03-04T12:24:02;1.70;72.10
11140;DHT22;5624;49.388;11.350;2023-03-04T12:31:55;1.70;71.60
11140;DHT22;5624;49.388;11.350;2023-03-04T12:34:47;1.80;71.60
11140;DHT22;5624;49.388;11.350;2023-03-04T12:46:49;1.80;70.60
11140;DHT22;5624;49.388;11.350;2023-03-04T12:54:44;1.50;72.10
11140;DHT22;5624;49.388;11.350;2023-03-04T12:57:21;1.50;71.90
11140;DHT22;5624;49.388;11.350;2023-03-04T13:05:18;1.40;72.10
11140;DHT22;5624;49.388;11.350;2023-03-04T13:10:18;1.30;72.60
11140;DHT22;5624;49.388;11.350;2023-03-04T13:13:01;1.30;72.60
11140;DHT22;5624;49.388;11.350;2023-03-04T13:15:30;1.40;72.40
11140;DHT22;5624;49.388;11.350;2023-03-04T13:17:57;1.50;72.10
11140;DHT22;5624;49.388;11.350;2023-03-04T13:21:04;1.60;72.20
11140;DHT22;5624;49.388;11.350;2023-03-04T13:23:24;1.60;72.10
11140;DHT22;5624;49.388;11.350;2023-03-04T13:28:21;1.70;71.00
11140;DHT22;5624;49.388;11.350;2023-03-04T13:41:47;2.10;70.50
11140;DHT22;5624;49.388;11.350;2023-03-04T13:47:13;2.10;70.20
11140;DHT22;5624;49.388;11.350;2023-03-04T13:49:39;2.00;69.50
11140;DHT22;5624;49.388;11.350;2023-03-04T13:52:37;2.00;70.30
11140;DHT22;5624;49.388;11.350;2023-03-04T13:57:57;2.00;70.10
11140;DHT22;5624;49.388;11.350;2023-03-04T14:00:23;2.00;70.10
11140;DHT22;5624;49.388;11.350;2023-03-04T14:02:49;2.00;69.90
11140;DHT22;5624;49.388;11.350;2023-03-04T14:05:15;2.00;70.10
11140;DHT22;5624;49.388;11.350;2023-03-04T14:07:40;2.00;70.50
11140;DHT22;5624;49.388;11.350;2023-03-04T14:10:21;2.00;70.60
11140;DHT22;5624;49.388;11.350;2023-03-04T14:12:55;2.00;70.20
11140;DHT22;5624;49.388;11.350;2023-03-04T14:15:27;2.00;70.50
11140;DHT22;5624;49.388;11.350;2023-03-04T14:18:02;2.10;70.10
11140;DHT22;5624;49.388;11.350;2023-03-04T14:20:32;2.20;71.20
11140;DHT22;5624;49.388;11.350;2023-03-04T14:23:00;2.10;70.70
11140;DHT22;5624;49.388;11.350;2023-03-04T14:25:31;2.00;70.40
11140;DHT22;5624;49.388;11.350;2023-03-04T14:28:15;2.10;70.60
11140;DHT22;5624;49.388;11.350;2023-03-04T14:30:42;2.00;70.70
11140;DHT22;5624;49.388;11.350;2023-03-04T14:33:22;2.10;70.00
11140;DHT22;5624;49.388;11.350;2023-03-04T14:35:51;2.00;70.60
11140;DHT22;5624;49.388;11.350;2023-03-04T14:38:27;2.10;70.40
11140;DHT22;5624;49.388;11.350;2023-03-04T14:41:04;2.00;70.30
11140;DHT22;5624;49.388;11.350;2023-03-04T14:43:35;2.00;70.50
11140;DHT22;5624;49.388;11.350;2023-03-04T14:46:01;2.10;70.30
11140;DHT22;5624;49.388;11.350;2023-03-04T14:48:30;2.10;70.50
11140;DHT22;5624;49.388;11.350;2023-03-04T14:50:58;2.20;70.00
11140;DHT22;5624;49.388;11.350;2023-03-04T14:53:31;2.20;70.60
11140;DHT22;5624;49.388;11.350;2023-03-04T14:56:03;2.20;70.10
11140;DHT22;5624;49.388;11.350;2023-03-04T14:58:34;2.20;70.40
11140;DHT22;5624;49.388;11.350;2023-03-04T15:01:21;2.30;70.30
11140;DHT22;5624;49.388;11.350;2023-03-04T15:04:03;2.30;70.50
11140;DHT22;5624;49.388;11.350;2023-03-04T15:06:32;2.20;70.90
11140;DHT22;5624;49.388;11.350;2023-03-04T15:09:07;2.20;70.70
11140;DHT22;5624;49.388;11.350;2023-03-04T15:11:48;2.20;71.20
11140;DHT22;5624;49.388;11.350;2023-03-04T15:14:48;2.20;71.40
11140;DHT22;5624;49.388;11.350;2023-03-04T15:17:36;2.10;72.00
11140;DHT22;5624;49.388;11.350;2023-03-04T15:20:19;2.00;72.50
11140;DHT22;5624;49.388;11.350;2023-03-04T15:25:14;1.90;73.60
11140;DHT22;5624;49.388;11.350;2023-03-04T15:27:41;1.80;73.50
11140;DHT22;5624;49.388;11.350;2023-03-04T15:30:18;1.70;73.90
11140;DHT22;5624;49.388;11.350;2023-03-04T15:32:44;1.60;74.40
11140;DHT22;5624;49.388;11.350;2023-03-04T15:35:15;1.60;74.90
11140;DHT22;5624;49.388;11.350;2023-03-04T15:37:41;1.50;75.50
11140;DHT22;5624;49.388;11.350;2023-03-04T15:40:15;1.50;75.70
11140;DHT22;5624;49.388;11.350;2023-03-04T15:42:41;1.50;75.80
11140;DHT22;5624;49.388;11.350;2023-03-04T15:45:34;1.50;76.10
11140;DHT22;5624;49.388;11.350;2023-03-04T15:48:01;1.40;76.20
11140;DHT22;5624;49.388;11.350;2023-03-04T15:50:54;1.40;76.10
11140;DHT22;5624;49.388;11.350;2023-03-04T15:53:30;1.50;76.20
11140;DHT22;5624;49.388;11.350;2023-03-04T15:55:57;1.30;76.10
11140;DHT22;5624;49.388;11.350;2023-03-04T15:58:24;1.30;76.60
11140;DHT22;5624;49.388;11.350;2023-03-04T16:00:50;1.40;76.70
11140;DHT22;5624;49.388;11.350;2023-03-04T16:03:17;1.40;77.00
11140;DHT22;5624;49.388;11.350;2023-03-04T16:05:46;1.40;77.10
11140;DHT22;5624;49.388;11.350;2023-03-04T16:08:14;1.40;77.10
11140;DHT22;5624;49.388;11.350;2023-03-04T16:10:41;1.30;77.10
11140;DHT22;5624;49.388;11.350;2023-03-04T16:13:20;1.30;77.20
11140;DHT22;5624;49.388;11.350;2023-03-04T16:15:46;1.30;77.40
11140;DHT22;5624;49.388;11.350;2023-03-04T16:18:13;1.30;77.10
11140;DHT22;5624;49.388;11.350;2023-03-04T16:20:42;1.30;77.30
11140;DHT22;5624;49.388;11.350;2023-03-04T16:23:27;1.20;77.50
11140;DHT22;5624;49.388;11.350;2023-03-04T16:25:54;1.10;78.30
11140;DHT22;5624;49.388;11.350;2023-03-04T16:28:21;1.20;78.30
11140;DHT22;5624;49.388;11.350;2023-03-04T16:30:47;1.10;78.60
11140;DHT22;5624;49.388;11.350;2023-03-04T16:33:13;1.20;78.10
11140;DHT22;5624;49.388;11.350;2023-03-04T16:35:40;1.20;78.10
11140;DHT22;5624;49.388;11.350;2023-03-04T16:38:18;1.10;78.70
11140;DHT22;5624;49.388;11.350;2023-03-04T16:40:45;1.10;78.80
11140;DHT22;5624;49.388;11.350;2023-03-04T16:43:12;1.10;78.80
11140;DHT22;5624;49.388;11.350;2023-03-04T16:45:38;1.20;78.50
11140;DHT22;5624;49.388;11.350;2023-03-04T16:48:04;1.20;78.60
11140;DHT22;5624;49.388;11.350;2023-03-04T16:50:30;1.10;79.20
11140;DHT22;5624;49.388;11.350;2023-03-04T16:52:55;1.10;79.00
11140;DHT22;5624;49.388;11.350;2023-03-04T16:55:24;1.10;78.70
11140;DHT22;5624;49.388;11.350;2023-03-04T16:57:50;1.10;78.60
11140;DHT22;5624;49.388;11.350;2023-03-04T17:00:17;1.10;79.10
11140;DHT22;5624;49.388;11.350;2023-03-04T17:02:45;1.10;79.00
11140;DHT22;5624;49.388;11.350;2023-03-04T17:05:19;1.00;79.30
11140;DHT22;5624;49.388;11.350;2023-03-04T17:07:45;1.10;79.40
11140;DHT22;5624;49.388;11.350;2023-03-04T17:10:12;1.00;79.40
11140;DHT22;5624;49.388;11.350;2023-03-04T17:12:39;1.10;78.90
11140;DHT22;5624;49.388;11.350;2023-03-04T17:15:05;1.10;79.10
11140;DHT22;5624;49.388;11.350;2023-03-04T17:17:31;1.10;79.30
11140;DHT22;5624;49.388;11.350;2023-03-04T17:19:57;1.10;79.20
11140;DHT22;5624;49.388;11.350;2023-03-04T17:22:23;1.00;79.30
11140;DHT22;5624;49.388;11.350;2023-03-04T17:24:49;1.00;79.30
11140;DHT22;5624;49.388;11.350;2023-03-04T17:27:15;1.00;79.50
11140;DHT22;5624;49.388;11.350;2023-03-04T17:29:41;1.10;79.60
11140;DHT22;5624;49.388;11.350;2023-03-04T17:32:06;1.10;79.10
11140;DHT22;5624;49.388;11.350;2023-03-04T17:34:33;1.10;79.00
11140;DHT22;5624;49.388;11.350;2023-03-04T17:36:58;1.10;79.20